sensor_id;sensor_type;location;lat;lon;timestamp;pressure;altitude;pressure_sealevel;temperature;humidity
82249;BME280;71851;49.092;18.918;2024-02-28T00:02:24;97176.78;;;12.54;78.03
82249;BME280;71851;49.092;18.918;2024-02-28T00:05:24;97172.34;;;12.54;77.70
82249;BME280;71851;49.092;18.918;2024-02-28T00:08:25;97181.03;;;12.48;78.73
82249;BME280;71851;49.092;18.918;2024-02-28T00:11:25;97174.06;;;12.34;79.23
82249;BME280;71851;49.092;18.918;2024-02-28T00:14:26;97183.38;;;12.37;79.12
82249;BME280;71851;49.092;18.918;2024-02-28T00:17:28;97178.41;;;12.21;80.15
82249;BME280;71851;49.092;18.918;2024-02-28T00:20:28;97185.38;;;12.35;79.43
82249;BME280;71851;49.092;18.918;2024-02-28T00:23:30;97177.78;;;12.19;79.51
82249;BME280;71851;49.092;18.918;2024-02-28T00:26:31;97180.88;;;12.22;79.79
82249;BME280;71851;49.092;18.918;2024-02-28T00:29:32;97185.84;;;12.45;78.79
82249;BME280;71851;49.092;18.918;2024-02-28T00:32:33;97178.19;;;12.50;77.99
82249;BME280;71851;49.092;18.918;2024-02-28T00:35:33;97169.66;;;12.48;78.10
82249;BME280;71851;49.092;18.918;2024-02-28T00:38:34;97181.03;;;12.55;77.53
82249;BME280;71851;49.092;18.918;2024-02-28T00:41:34;97176.84;;;12.67;77.46
82249;BME280;71851;49.092;18.918;2024-02-28T00:44:35;97177.28;;;12.77;76.57
82249;BME280;71851;49.092;18.918;2024-02-28T00:47:35;97173.66;;;12.78;76.17
82249;BME280;71851;49.092;18.918;2024-02-28T00:50:36;97175.09;;;12.80;77.00
82249;BME280;71851;49.092;18.918;2024-02-28T00:53:36;97172.19;;;12.62;76.48
82249;BME280;71851;49.092;18.918;2024-02-28T00:56:36;97182.97;;;12.74;76.63
82249;BME280;71851;49.092;18.918;2024-02-28T00:59:37;97175.06;;;12.74;76.97
82249;BME280;71851;49.092;18.918;2024-02-28T01:02:37;97170.56;;;12.68;77.10
82249;BME280;71851;49.092;18.918;2024-02-28T01:05:37;97166.31;;;12.67;76.49
82249;BME280;71851;49.092;18.918;2024-02-28T01:08:38;97163.47;;;12.62;77.04
82249;BME280;71851;49.092;18.918;2024-02-28T01:11:38;97170.75;;;12.60;77.12
82249;BME280;71851;49.092;18.918;2024-02-28T01:14:39;97169.72;;;12.54;77.48
82249;BME280;71851;49.092;18.918;2024-02-28T01:17:39;97176.06;;;12.32;77.93
82249;BME280;71851;49.092;18.918;2024-02-28T01:20:39;97169.06;;;12.12;78.59
82249;BME280;71851;49.092;18.918;2024-02-28T01:23:40;97160.34;;;12.11;78.59
82249;BME280;71851;49.092;18.918;2024-02-28T01:26:41;97163.13;;;12.03;78.96
82249;BME280;71851;49.092;18.918;2024-02-28T01:29:42;97165.38;;;11.78;79.99
82249;BME280;71851;49.092;18.918;2024-02-28T01:32:43;97167.25;;;11.63;80.83
82249;BME280;71851;49.092;18.918;2024-02-28T01:35:43;97162.47;;;11.67;80.91
82249;BME280;71851;49.092;18.918;2024-02-28T01:38:44;97160.09;;;11.72;80.58
82249;BME280;71851;49.092;18.918;2024-02-28T01:41:52;97157.63;;;11.70;80.61
82249;BME280;71851;49.092;18.918;2024-02-28T01:44:53;97169.97;;;11.70;81.10
82249;BME280;71851;49.092;18.918;2024-02-28T01:47:54;97166.00;;;11.59;80.39
82249;BME280;71851;49.092;18.918;2024-02-28T01:50:55;97168.41;;;11.33;81.26
82249;BME280;71851;49.092;18.918;2024-02-28T01:53:56;97177.09;;;11.34;81.10
82249;BME280;71851;49.092;18.918;2024-02-28T01:56:57;97178.09;;;11.33;81.40
82249;BME280;71851;49.092;18.918;2024-02-28T01:59:59;97176.97;;;11.21;81.77
82249;BME280;71851;49.092;18.918;2024-02-28T02:03:03;97169.19;;;11.12;81.35
82249;BME280;71851;49.092;18.918;2024-02-28T02:06:03;97171.19;;;11.10;82.00
82249;BME280;71851;49.092;18.918;2024-02-28T02:09:04;97176.84;;;11.07;81.53
82249;BME280;71851;49.092;18.918;2024-02-28T02:12:04;97174.22;;;11.07;81.43
82249;BME280;71851;49.092;18.918;2024-02-28T02:15:05;97177.41;;;11.03;81.56
82249;BME280;71851;49.092;18.918;2024-02-28T02:18:06;97179.69;;;10.91;82.07
82249;BME280;71851;49.092;18.918;2024-02-28T02:21:06;97174.88;;;10.95;81.98
82249;BME280;71851;49.092;18.918;2024-02-28T02:24:10;97175.94;;;10.79;81.44
82249;BME280;71851;49.092;18.918;2024-02-28T02:27:10;97176.84;;;10.72;81.71
82249;BME280;71851;49.092;18.918;2024-02-28T02:30:11;97188.72;;;10.68;81.10
82249;BME280;71851;49.092;18.918;2024-02-28T02:33:13;97181.25;;;10.86;80.67
82249;BME280;71851;49.092;18.918;2024-02-28T02:36:13;97183.78;;;10.94;79.37
82249;BME280;71851;49.092;18.918;2024-02-28T02:39:13;97183.72;;;11.08;78.66
82249;BME280;71851;49.092;18.918;2024-02-28T02:42:14;97181.34;;;11.13;79.14
82249;BME280;71851;49.092;18.918;2024-02-28T02:45:16;97193.31;;;11.16;78.52
82249;BME280;71851;49.092;18.918;2024-02-28T02:48:16;97186.06;;;11.18;78.02
82249;BME280;71851;49.092;18.918;2024-02-28T02:51:18;97190.72;;;11.23;77.12
82249;BME280;71851;49.092;18.918;2024-02-28T02:54:19;97190.59;;;11.31;76.82
82249;BME280;71851;49.092;18.918;2024-02-28T02:57:19;97185.84;;;11.41;76.89
82249;BME280;71851;49.092;18.918;2024-02-28T03:00:21;97188.19;;;11.50;76.24
82249;BME280;71851;49.092;18.918;2024-02-28T03:03:21;97187.78;;;11.53;75.57
82249;BME280;71851;49.092;18.918;2024-02-28T03:06:22;97189.03;;;11.57;75.22
82249;BME280;71851;49.092;18.918;2024-02-28T03:09:24;97182.81;;;11.58;75.38
82249;BME280;71851;49.092;18.918;2024-02-28T03:12:24;97187.78;;;11.53;75.07
82249;BME280;71851;49.092;18.918;2024-02-28T03:15:25;97190.22;;;11.55;75.30
82249;BME280;71851;49.092;18.918;2024-02-28T03:18:25;97191.88;;;11.56;75.07
82249;BME280;71851;49.092;18.918;2024-02-28T03:21:26;97188.75;;;11.46;75.95
82249;BME280;71851;49.092;18.918;2024-02-28T03:24:26;97192.63;;;11.50;76.11
82249;BME280;71851;49.092;18.918;2024-02-28T03:27:26;97188.38;;;11.70;74.90
82249;BME280;71851;49.092;18.918;2024-02-28T03:30:27;97189.84;;;11.79;74.57
82249;BME280;71851;49.092;18.918;2024-02-28T03:33:27;97198.44;;;11.87;74.97
82249;BME280;71851;49.092;18.918;2024-02-28T03:36:29;97205.28;;;11.88;74.28
82249;BME280;71851;49.092;18.918;2024-02-28T03:39:29;97194.78;;;11.88;74.63
82249;BME280;71851;49.092;18.918;2024-02-28T03:42:29;97193.59;;;11.91;74.19
82249;BME280;71851;49.092;18.918;2024-02-28T03:45:30;97184.72;;;11.92;73.81
82249;BME280;71851;49.092;18.918;2024-02-28T03:48:31;97193.22;;;11.94;73.93
82249;BME280;71851;49.092;18.918;2024-02-28T03:51:31;97199.09;;;11.96;73.40
82249;BME280;71851;49.092;18.918;2024-02-28T03:54:31;97201.41;;;12.06;73.90
82249;BME280;71851;49.092;18.918;2024-02-28T03:57:33;97201.44;;;12.12;73.04
82249;BME280;71851;49.092;18.918;2024-02-28T04:00:33;97207.75;;;12.18;72.96
82249;BME280;71851;49.092;18.918;2024-02-28T04:03:33;97202.25;;;12.13;73.18
82249;BME280;71851;49.092;18.918;2024-02-28T04:06:34;97199.25;;;12.16;73.40
82249;BME280;71851;49.092;18.918;2024-02-28T04:09:35;97209.63;;;12.24;73.10
82249;BME280;71851;49.092;18.918;2024-02-28T04:12:35;97209.19;;;12.20;73.10
82249;BME280;71851;49.092;18.918;2024-02-28T04:15:35;97220.97;;;12.24;73.03
82249;BME280;71851;49.092;18.918;2024-02-28T04:18:37;97227.63;;;11.99;73.33
82249;BME280;71851;49.092;18.918;2024-02-28T04:21:38;97230.06;;;12.01;73.96
82249;BME280;71851;49.092;18.918;2024-02-28T04:24:38;97232.88;;;12.20;73.54
82249;BME280;71851;49.092;18.918;2024-02-28T04:27:39;97230.09;;;12.28;73.03
82249;BME280;71851;49.092;18.918;2024-02-28T04:30:39;97237.03;;;12.36;73.12
82249;BME280;71851;49.092;18.918;2024-02-28T04:33:40;97235.38;;;12.35;73.25
82249;BME280;71851;49.092;18.918;2024-02-28T04:36:40;97238.00;;;12.35;72.77
82249;BME280;71851;49.092;18.918;2024-02-28T04:39:40;97242.16;;;12.16;73.81
82249;BME280;71851;49.092;18.918;2024-02-28T04:42:41;97241.56;;;12.21;73.85
82249;BME280;71851;49.092;18.918;2024-02-28T04:45:43;97251.22;;;12.14;73.62
82249;BME280;71851;49.092;18.918;2024-02-28T04:48:43;97247.34;;;12.10;73.49
82249;BME280;71851;49.092;18.918;2024-02-28T04:51:43;97245.53;;;12.10;73.84
82249;BME280;71851;49.092;18.918;2024-02-28T04:54:44;97242.31;;;12.15;73.66
82249;BME280;71851;49.092;18.918;2024-02-28T04:57:44;97244.16;;;12.14;73.42
82249;BME280;71851;49.092;18.918;2024-02-28T05:00:44;97241.13;;;12.17;73.07
82249;BME280;71851;49.092;18.918;2024-02-28T05:03:45;97248.66;;;12.20;72.77
82249;BME280;71851;49.092;18.918;2024-02-28T05:06:45;97247.63;;;12.21;73.13
82249;BME280;71851;49.092;18.918;2024-02-28T05:09:46;97242.16;;;12.16;72.88
82249;BME280;71851;49.092;18.918;2024-02-28T05:12:46;97250.06;;;12.23;73.22
82249;BME280;71851;49.092;18.918;2024-02-28T05:15:46;97249.50;;;12.27;72.77
82249;BME280;71851;49.092;18.918;2024-02-28T05:18:47;97262.47;;;12.29;73.28
82249;BME280;71851;49.092;18.918;2024-02-28T05:21:47;97256.56;;;12.27;72.86
82249;BME280;71851;49.092;18.918;2024-02-28T05:24:50;97275.44;;;12.30;72.85
82249;BME280;71851;49.092;18.918;2024-02-28T05:27:51;97274.81;;;12.28;72.06
82249;BME280;71851;49.092;18.918;2024-02-28T05:30:51;97279.97;;;12.15;73.75
82249;BME280;71851;49.092;18.918;2024-02-28T05:33:52;97276.91;;;12.12;74.20
82249;BME280;71851;49.092;18.918;2024-02-28T05:36:54;97268.88;;;12.20;74.18
82249;BME280;71851;49.092;18.918;2024-02-28T05:39:54;97287.09;;;12.21;74.10
82249;BME280;71851;49.092;18.918;2024-02-28T05:42:55;97283.78;;;12.13;74.03
82249;BME280;71851;49.092;18.918;2024-02-28T05:45:55;97290.28;;;12.17;74.38
82249;BME280;71851;49.092;18.918;2024-02-28T05:48:55;97285.66;;;12.19;74.07
82249;BME280;71851;49.092;18.918;2024-02-28T05:51:56;97288.69;;;11.94;74.50
82249;BME280;71851;49.092;18.918;2024-02-28T05:54:56;97273.81;;;12.29;73.78
82249;BME280;71851;49.092;18.918;2024-02-28T05:57:56;97286.41;;;12.34;73.00
82249;BME280;71851;49.092;18.918;2024-02-28T06:00:57;97275.63;;;12.29;73.20
82249;BME280;71851;49.092;18.918;2024-02-28T06:03:57;97287.69;;;11.95;74.78
82249;BME280;71851;49.092;18.918;2024-02-28T06:06:58;97289.38;;;12.03;74.15
82249;BME280;71851;49.092;18.918;2024-02-28T06:09:59;97296.44;;;12.03;74.73
82249;BME280;71851;49.092;18.918;2024-02-28T06:13:00;97297.25;;;12.24;73.68
82249;BME280;71851;49.092;18.918;2024-02-28T06:16:00;97292.44;;;12.28;73.55
82249;BME280;71851;49.092;18.918;2024-02-28T06:19:02;97296.16;;;12.40;72.84
82249;BME280;71851;49.092;18.918;2024-02-28T06:22:02;97313.97;;;12.38;73.17
82249;BME280;71851;49.092;18.918;2024-02-28T06:25:03;97298.59;;;12.41;73.23
82249;BME280;71851;49.092;18.918;2024-02-28T06:28:07;97300.47;;;12.47;72.47
82249;BME280;71851;49.092;18.918;2024-02-28T06:31:15;97306.78;;;12.53;72.65
82249;BME280;71851;49.092;18.918;2024-02-28T06:34:15;97296.31;;;12.32;73.07
82249;BME280;71851;49.092;18.918;2024-02-28T06:37:16;97302.19;;;12.34;73.76
82249;BME280;71851;49.092;18.918;2024-02-28T06:40:16;97306.25;;;12.36;73.47
82249;BME280;71851;49.092;18.918;2024-02-28T06:43:17;97307.09;;;12.43;73.07
82249;BME280;71851;49.092;18.918;2024-02-28T06:46:17;97308.91;;;12.43;73.24
82249;BME280;71851;49.092;18.918;2024-02-28T06:49:18;97313.84;;;12.80;71.70
82249;BME280;71851;49.092;18.918;2024-02-28T06:52:21;97303.72;;;12.83;70.93
82249;BME280;71851;49.092;18.918;2024-02-28T06:55:21;97303.34;;;12.87;71.50
82249;BME280;71851;49.092;18.918;2024-02-28T06:58:21;97310.84;;;12.90;71.20
82249;BME280;71851;49.092;18.918;2024-02-28T07:01:24;97330.50;;;12.87;71.60
82249;BME280;71851;49.092;18.918;2024-02-28T07:04:24;97319.09;;;13.08;70.71
82249;BME280;71851;49.092;18.918;2024-02-28T07:07:25;97316.88;;;13.11;70.35
82249;BME280;71851;49.092;18.918;2024-02-28T07:10:25;97331.91;;;13.17;70.71
82249;BME280;71851;49.092;18.918;2024-02-28T07:13:25;97334.16;;;13.20;70.29
82249;BME280;71851;49.092;18.918;2024-02-28T07:16:28;97328.91;;;13.27;70.01
82249;BME280;71851;49.092;18.918;2024-02-28T07:19:28;97329.63;;;13.48;69.44
82249;BME280;71851;49.092;18.918;2024-02-28T07:22:28;97342.84;;;13.61;69.38
82249;BME280;71851;49.092;18.918;2024-02-28T07:25:29;97339.59;;;13.66;69.13
82249;BME280;71851;49.092;18.918;2024-02-28T07:28:31;97344.91;;;13.79;68.55
82249;BME280;71851;49.092;18.918;2024-02-28T07:31:31;97345.50;;;13.81;68.88
82249;BME280;71851;49.092;18.918;2024-02-28T07:34:32;97351.19;;;13.72;68.70
82249;BME280;71851;49.092;18.918;2024-02-28T07:37:34;97341.47;;;13.85;68.11
82249;BME280;71851;49.092;18.918;2024-02-28T07:40:34;97350.84;;;13.94;67.77
82249;BME280;71851;49.092;18.918;2024-02-28T07:43:34;97344.56;;;14.02;66.66
82249;BME280;71851;49.092;18.918;2024-02-28T07:46:38;97348.66;;;14.11;66.86
82249;BME280;71851;49.092;18.918;2024-02-28T07:49:45;97355.94;;;14.15;66.78
82249;BME280;71851;49.092;18.918;2024-02-28T07:52:45;97348.44;;;14.25;66.86
82249;BME280;71851;49.092;18.918;2024-02-28T07:55:46;97340.56;;;14.38;66.46
82249;BME280;71851;49.092;18.918;2024-02-28T07:58:46;97345.84;;;14.52;65.58
82249;BME280;71851;49.092;18.918;2024-02-28T08:01:49;97342.19;;;14.53;65.38
82249;BME280;71851;49.092;18.918;2024-02-28T08:04:49;97343.00;;;14.60;65.98
82249;BME280;71851;49.092;18.918;2024-02-28T08:07:50;97339.72;;;14.84;64.47
82249;BME280;71851;49.092;18.918;2024-02-28T08:10:51;97352.69;;;14.98;64.19
82249;BME280;71851;49.092;18.918;2024-02-28T08:13:53;97346.59;;;15.04;64.04
82249;BME280;71851;49.092;18.918;2024-02-28T08:16:53;97351.84;;;15.17;63.47
82249;BME280;71851;49.092;18.918;2024-02-28T08:19:54;97352.88;;;15.10;62.89
82249;BME280;71851;49.092;18.918;2024-02-28T08:22:54;97341.06;;;15.19;63.42
82249;BME280;71851;49.092;18.918;2024-02-28T08:25:57;97336.81;;;15.11;63.17
82249;BME280;71851;49.092;18.918;2024-02-28T08:28:57;97345.84;;;15.42;61.67
82249;BME280;71851;49.092;18.918;2024-02-28T08:31:58;97345.88;;;15.86;58.93
82249;BME280;71851;49.092;18.918;2024-02-28T08:34:58;97354.13;;;16.09;58.71
82249;BME280;71851;49.092;18.918;2024-02-28T08:37:59;97356.19;;;16.32;57.43
82249;BME280;71851;49.092;18.918;2024-02-28T08:40:59;97344.91;;;16.49;57.21
82249;BME280;71851;49.092;18.918;2024-02-28T08:43:59;97350.72;;;16.82;55.67
82249;BME280;71851;49.092;18.918;2024-02-28T08:47:00;97350.97;;;16.99;55.13
82249;BME280;71851;49.092;18.918;2024-02-28T08:50:00;97346.38;;;17.06;55.05
82249;BME280;71851;49.092;18.918;2024-02-28T08:53:02;97347.66;;;17.22;54.89
82249;BME280;71851;49.092;18.918;2024-02-28T08:56:03;97352.00;;;17.34;54.57
82249;BME280;71851;49.092;18.918;2024-02-28T08:59:03;97356.13;;;17.30;53.69
82249;BME280;71851;49.092;18.918;2024-02-28T09:02:03;97357.75;;;17.13;54.00
82249;BME280;71851;49.092;18.918;2024-02-28T09:05:04;97363.47;;;16.92;54.69
82249;BME280;71851;49.092;18.918;2024-02-28T09:08:05;97366.25;;;16.54;56.25
82249;BME280;71851;49.092;18.918;2024-02-28T09:11:06;97362.00;;;16.47;57.09
82249;BME280;71851;49.092;18.918;2024-02-28T09:14:07;97367.88;;;16.55;57.11
82249;BME280;71851;49.092;18.918;2024-02-28T09:17:07;97373.38;;;16.54;57.15
82249;BME280;71851;49.092;18.918;2024-02-28T09:20:08;97365.66;;;16.46;57.49
82249;BME280;71851;49.092;18.918;2024-02-28T09:23:09;97364.81;;;16.52;57.32
82249;BME280;71851;49.092;18.918;2024-02-28T09:26:09;97360.94;;;16.54;57.41
82249;BME280;71851;49.092;18.918;2024-02-28T09:29:10;97371.75;;;16.53;57.70
82249;BME280;71851;49.092;18.918;2024-02-28T09:32:11;97366.16;;;16.67;58.37
82249;BME280;71851;49.092;18.918;2024-02-28T09:35:11;97371.53;;;16.79;57.52
82249;BME280;71851;49.092;18.918;2024-02-28T09:38:12;97378.13;;;16.70;57.08
82249;BME280;71851;49.092;18.918;2024-02-28T09:41:15;97378.78;;;16.90;57.50
82249;BME280;71851;49.092;18.918;2024-02-28T09:44:16;97371.94;;;17.00;56.84
82249;BME280;71851;49.092;18.918;2024-02-28T09:47:18;97379.16;;;17.12;55.55
82249;BME280;71851;49.092;18.918;2024-02-28T09:50:19;97384.69;;;17.10;54.74
82249;BME280;71851;49.092;18.918;2024-02-28T09:53:21;97378.81;;;17.08;53.95
82249;BME280;71851;49.092;18.918;2024-02-28T09:56:22;97385.22;;;17.19;54.20
82249;BME280;71851;49.092;18.918;2024-02-28T09:59:24;97384.28;;;17.31;53.38
82249;BME280;71851;49.092;18.918;2024-02-28T10:02:26;97390.59;;;17.55;53.27
82249;BME280;71851;49.092;18.918;2024-02-28T10:05:27;97389.13;;;17.59;51.78
82249;BME280;71851;49.092;18.918;2024-02-28T10:08:29;97392.28;;;17.67;51.70
82249;BME280;71851;49.092;18.918;2024-02-28T10:11:29;97389.41;;;17.69;51.12
82249;BME280;71851;49.092;18.918;2024-02-28T10:14:30;97392.34;;;17.79;48.91
82249;BME280;71851;49.092;18.918;2024-02-28T10:17:30;97384.94;;;17.99;49.35
82249;BME280;71851;49.092;18.918;2024-02-28T10:20:31;97385.41;;;18.08;48.85
82249;BME280;71851;49.092;18.918;2024-02-28T10:23:31;97388.81;;;18.44;48.61
82249;BME280;71851;49.092;18.918;2024-02-28T10:26:32;97392.78;;;18.88;48.61
82249;BME280;71851;49.092;18.918;2024-02-28T10:29:38;97393.97;;;19.27;47.74
82249;BME280;71851;49.092;18.918;2024-02-28T10:32:48;97389.63;;;19.84;46.31
82249;BME280;71851;49.092;18.918;2024-02-28T10:35:50;97400.88;;;20.42;44.28
82249;BME280;71851;49.092;18.918;2024-02-28T10:38:55;97386.28;;;20.78;43.71
82249;BME280;71851;49.092;18.918;2024-02-28T10:41:57;97382.56;;;21.12;41.67
82249;BME280;71851;49.092;18.918;2024-02-28T10:45:01;97390.66;;;20.84;42.49
82249;BME280;71851;49.092;18.918;2024-02-28T10:48:02;97384.66;;;20.93;42.65
82249;BME280;71851;49.092;18.918;2024-02-28T10:51:04;97388.94;;;21.11;43.12
82249;BME280;71851;49.092;18.918;2024-02-28T10:54:09;97393.38;;;20.56;43.10
82249;BME280;71851;49.092;18.918;2024-02-28T10:57:12;97391.22;;;20.24;44.45
82249;BME280;71851;49.092;18.918;2024-02-28T11:00:15;97385.97;;;19.62;44.39
82249;BME280;71851;49.092;18.918;2024-02-28T11:03:17;97390.16;;;19.58;45.29
82249;BME280;71851;49.092;18.918;2024-02-28T11:06:19;97382.94;;;19.70;45.17
82249;BME280;71851;49.092;18.918;2024-02-28T11:09:25;97376.50;;;19.94;44.11
82249;BME280;71851;49.092;18.918;2024-02-28T11:12:29;97377.63;;;20.54;43.56
82249;BME280;71851;49.092;18.918;2024-02-28T11:15:29;97389.09;;;20.71;43.51
82249;BME280;71851;49.092;18.918;2024-02-28T11:18:30;97390.72;;;20.56;43.71
82249;BME280;71851;49.092;18.918;2024-02-28T11:21:34;97384.63;;;20.44;43.56
82249;BME280;71851;49.092;18.918;2024-02-28T11:24:35;97388.41;;;20.31;43.41
82249;BME280;71851;49.092;18.918;2024-02-28T11:27:49;97389.09;;;20.38;43.61
82249;BME280;71851;49.092;18.918;2024-02-28T11:30:50;97386.44;;;20.26;43.42
82249;BME280;71851;49.092;18.918;2024-02-28T11:33:50;97388.31;;;20.26;43.69
82249;BME280;71851;49.092;18.918;2024-02-28T11:36:51;97386.47;;;20.15;43.79
82249;BME280;71851;49.092;18.918;2024-02-28T11:39:53;97387.75;;;20.12;43.31
82249;BME280;71851;49.092;18.918;2024-02-28T11:42:55;97386.22;;;20.16;44.15
82249;BME280;71851;49.092;18.918;2024-02-28T11:45:55;97375.00;;;20.43;42.26
82249;BME280;71851;49.092;18.918;2024-02-28T11:48:56;97378.25;;;20.45;42.92
82249;BME280;71851;49.092;18.918;2024-02-28T11:51:56;97375.03;;;20.59;42.97
82249;BME280;71851;49.092;18.918;2024-02-28T11:54:56;97376.66;;;20.60;42.40
82249;BME280;71851;49.092;18.918;2024-02-28T11:57:57;97372.03;;;20.72;42.27
82249;BME280;71851;49.092;18.918;2024-02-28T12:00:57;97383.00;;;21.04;42.16
82249;BME280;71851;49.092;18.918;2024-02-28T12:03:58;97368.75;;;21.37;41.17
82249;BME280;71851;49.092;18.918;2024-02-28T12:06:58;97369.34;;;21.60;41.70
82249;BME280;71851;49.092;18.918;2024-02-28T12:09:59;97363.94;;;21.55;40.58
82249;BME280;71851;49.092;18.918;2024-02-28T12:13:00;97364.25;;;21.21;41.03
82249;BME280;71851;49.092;18.918;2024-02-28T12:16:01;97364.91;;;20.94;41.62
82249;BME280;71851;49.092;18.918;2024-02-28T12:19:11;97363.88;;;20.62;42.41
82249;BME280;71851;49.092;18.918;2024-02-28T12:22:12;97359.28;;;20.58;42.78
82249;BME280;71851;49.092;18.918;2024-02-28T12:25:12;97359.97;;;20.20;43.36
82249;BME280;71851;49.092;18.918;2024-02-28T12:28:13;97354.31;;;20.33;43.56
82249;BME280;71851;49.092;18.918;2024-02-28T12:31:13;97360.88;;;20.59;43.65
82249;BME280;71851;49.092;18.918;2024-02-28T12:34:14;97354.38;;;21.38;42.31
82249;BME280;71851;49.092;18.918;2024-02-28T12:37:15;97348.47;;;21.57;41.95
82249;BME280;71851;49.092;18.918;2024-02-28T12:40:16;97351.69;;;21.59;41.39
82249;BME280;71851;49.092;18.918;2024-02-28T12:43:17;97349.03;;;21.38;41.62
82249;BME280;71851;49.092;18.918;2024-02-28T12:46:18;97352.84;;;21.25;42.23
82249;BME280;71851;49.092;18.918;2024-02-28T12:49:20;97361.38;;;20.89;43.43
82249;BME280;71851;49.092;18.918;2024-02-28T12:52:20;97361.78;;;20.64;44.23
82249;BME280;71851;49.092;18.918;2024-02-28T12:55:21;97356.13;;;20.44;44.77
82249;BME280;71851;49.092;18.918;2024-02-28T12:58:22;97365.81;;;20.33;44.68
82249;BME280;71851;49.092;18.918;2024-02-28T13:01:24;97362.81;;;20.18;45.06
82249;BME280;71851;49.092;18.918;2024-02-28T13:04:25;97356.25;;;20.21;44.86
82249;BME280;71851;49.092;18.918;2024-02-28T13:07:26;97364.03;;;20.11;45.56
82249;BME280;71851;49.092;18.918;2024-02-28T13:10:27;97363.88;;;20.46;44.83
82249;BME280;71851;49.092;18.918;2024-02-28T13:13:27;97371.94;;;20.34;44.74
82249;BME280;71851;49.092;18.918;2024-02-28T13:16:28;97365.66;;;20.57;44.19
82249;BME280;71851;49.092;18.918;2024-02-28T13:19:28;97358.63;;;20.51;43.75
82249;BME280;71851;49.092;18.918;2024-02-28T13:22:28;97365.38;;;20.25;43.88
82249;BME280;71851;49.092;18.918;2024-02-28T13:25:29;97354.63;;;20.08;44.36
82249;BME280;71851;49.092;18.918;2024-02-28T13:28:29;97364.44;;;19.91;44.86
82249;BME280;71851;49.092;18.918;2024-02-28T13:31:30;97357.47;;;19.74;45.75
82249;BME280;71851;49.092;18.918;2024-02-28T13:34:31;97355.09;;;19.49;45.36
82249;BME280;71851;49.092;18.918;2024-02-28T13:37:32;97359.69;;;19.30;45.94
82249;BME280;71851;49.092;18.918;2024-02-28T13:40:33;97359.84;;;18.89;46.78
82249;BME280;71851;49.092;18.918;2024-02-28T13:43:33;97356.25;;;18.72;46.79
82249;BME280;71851;49.092;18.918;2024-02-28T13:46:34;97361.56;;;18.60;46.49
82249;BME280;71851;49.092;18.918;2024-02-28T13:49:34;97353.59;;;18.72;46.30
82249;BME280;71851;49.092;18.918;2024-02-28T13:52:34;97357.84;;;18.50;46.80
82249;BME280;71851;49.092;18.918;2024-02-28T13:55:35;97363.06;;;18.56;46.81
82249;BME280;71851;49.092;18.918;2024-02-28T13:58:35;97359.03;;;18.65;46.79
82249;BME280;71851;49.092;18.918;2024-02-28T14:01:36;97358.94;;;18.84;46.81
82249;BME280;71851;49.092;18.918;2024-02-28T14:04:36;97361.59;;;18.84;47.57
82249;BME280;71851;49.092;18.918;2024-02-28T14:07:36;97358.78;;;18.55;48.93
82249;BME280;71851;49.092;18.918;2024-02-28T14:10:40;97363.97;;;18.50;49.35
82249;BME280;71851;49.092;18.918;2024-02-28T14:13:40;97360.06;;;18.53;49.62
82249;BME280;71851;49.092;18.918;2024-02-28T14:16:41;97364.28;;;18.42;49.67
82249;BME280;71851;49.092;18.918;2024-02-28T14:19:42;97367.13;;;18.29;49.53
82249;BME280;71851;49.092;18.918;2024-02-28T14:22:43;97367.31;;;18.46;49.31
82249;BME280;71851;49.092;18.918;2024-02-28T14:25:43;97368.06;;;18.35;48.88
82249;BME280;71851;49.092;18.918;2024-02-28T14:28:44;97372.63;;;18.46;49.03
82249;BME280;71851;49.092;18.918;2024-02-28T14:31:44;97371.88;;;18.27;49.53
82249;BME280;71851;49.092;18.918;2024-02-28T14:34:45;97376.00;;;18.23;49.66
82249;BME280;71851;49.092;18.918;2024-02-28T14:37:46;97363.75;;;18.22;50.05
82249;BME280;71851;49.092;18.918;2024-02-28T14:40:46;97362.72;;;18.23;50.48
82249;BME280;71851;49.092;18.918;2024-02-28T14:43:48;97373.47;;;18.28;50.60
82249;BME280;71851;49.092;18.918;2024-02-28T14:46:48;97372.66;;;18.28;50.61
82249;BME280;71851;49.092;18.918;2024-02-28T14:49:48;97375.47;;;18.33;50.90
82249;BME280;71851;49.092;18.918;2024-02-28T14:52:49;97377.06;;;18.34;50.53
82249;BME280;71851;49.092;18.918;2024-02-28T14:55:50;97370.97;;;18.33;50.99
82249;BME280;71851;49.092;18.918;2024-02-28T14:58:52;97372.28;;;18.13;51.87
82249;BME280;71851;49.092;18.918;2024-02-28T15:01:52;97372.31;;;17.95;52.66
82249;BME280;71851;49.092;18.918;2024-02-28T15:04:53;97374.94;;;17.83;54.08
82249;BME280;71851;49.092;18.918;2024-02-28T15:07:53;97378.50;;;17.59;54.63
82249;BME280;71851;49.092;18.918;2024-02-28T15:10:55;97377.53;;;17.35;55.65
82249;BME280;71851;49.092;18.918;2024-02-28T15:13:55;97385.09;;;17.68;55.13
82249;BME280;71851;49.092;18.918;2024-02-28T15:16:55;97383.00;;;17.58;55.73
82249;BME280;71851;49.092;18.918;2024-02-28T15:19:56;97389.19;;;17.52;56.14
82249;BME280;71851;49.092;18.918;2024-02-28T15:22:56;97384.47;;;17.54;56.24
82249;BME280;71851;49.092;18.918;2024-02-28T15:25:58;97392.31;;;17.43;57.16
82249;BME280;71851;49.092;18.918;2024-02-28T15:28:59;97396.59;;;17.44;57.40
82249;BME280;71851;49.092;18.918;2024-02-28T15:31:59;97391.38;;;17.37;57.64
82249;BME280;71851;49.092;18.918;2024-02-28T15:34:59;97396.22;;;16.97;58.62
82249;BME280;71851;49.092;18.918;2024-02-28T15:38:00;97392.72;;;17.03;59.05
82249;BME280;71851;49.092;18.918;2024-02-28T15:41:00;97382.22;;;17.15;58.29
82249;BME280;71851;49.092;18.918;2024-02-28T15:44:01;97384.34;;;17.07;58.95
82249;BME280;71851;49.092;18.918;2024-02-28T15:47:01;97391.81;;;16.91;59.55